Terminal Aerodrome Forecast
Issued by NWS Sterling, VA

Current Version | Previous Version | Graphics & Text | Print | Product List | Glossary On
Versions: 1 2 3 4 5 6 7 8 9 10 11 12 13 14 15 16 17 18 19 20 21 22
000
FTUS41 KLWX 280800 AAA
TAFDCA
TAF AMD
KDCA 280838Z 2809/2906 22006KT P6SM FEW050 SCT130
     FM281400 28011G22KT P6SM SCT050 BKN090
     FM282300 28012KT P6SM BKN050
     FM290300 31012KT P6SM BKN090=

USA.gov is the U.S. government's official web portal to all federal, state and local government web resources and services.